sensor_id;sensor_type;location;lat;lon;timestamp;pressure;altitude;pressure_sealevel;temperature
73265;BMP280;61493;51.008;14.088;2022-11-02T00:01:50;98227.63;;;7.96
73265;BMP280;61493;51.008;14.088;2022-11-02T00:04:15;98223.84;;;8.01
73265;BMP280;61493;51.008;14.088;2022-11-02T00:06:41;98224.97;;;7.96
73265;BMP280;61493;51.008;14.088;2022-11-02T00:09:09;98223.47;;;7.95
73265;BMP280;61493;51.008;14.088;2022-11-02T00:11:35;98224.25;;;7.92
73265;BMP280;61493;51.008;14.088;2022-11-02T00:14:01;98221.59;;;7.92
73265;BMP280;61493;51.008;14.088;2022-11-02T00:16:26;98221.97;;;7.94
73265;BMP280;61493;51.008;14.088;2022-11-02T00:18:54;98217.47;;;7.91
73265;BMP280;61493;51.008;14.088;2022-11-02T00:21:23;98221.28;;;7.87
73265;BMP280;61493;51.008;14.088;2022-11-02T00:23:49;98226.56;;;7.83
73265;BMP280;61493;51.008;14.088;2022-11-02T00:26:14;98232.25;;;7.85
73265;BMP280;61493;51.008;14.088;2022-11-02T00:28:41;98247.34;;;7.92
73265;BMP280;61493;51.008;14.088;2022-11-02T00:31:06;98234.53;;;7.87
73265;BMP280;61493;51.008;14.088;2022-11-02T00:33:31;98238.69;;;7.91
73265;BMP280;61493;51.008;14.088;2022-11-02T00:35:57;98239.78;;;7.90
73265;BMP280;61493;51.008;14.088;2022-11-02T00:38:22;98234.88;;;7.89
73265;BMP280;61493;51.008;14.088;2022-11-02T00:40:48;98242.47;;;7.87
73265;BMP280;61493;51.008;14.088;2022-11-02T00:43:13;98240.97;;;7.82
73265;BMP280;61493;51.008;14.088;2022-11-02T00:45:38;98241.78;;;7.72
73265;BMP280;61493;51.008;14.088;2022-11-02T00:48:04;98243.31;;;7.66
73265;BMP280;61493;51.008;14.088;2022-11-02T00:50:30;98243.34;;;7.69
73265;BMP280;61493;51.008;14.088;2022-11-02T00:52:55;98250.13;;;7.67
73265;BMP280;61493;51.008;14.088;2022-11-02T00:55:20;98246.38;;;7.61
73265;BMP280;61493;51.008;14.088;2022-11-02T00:57:46;98247.13;;;7.61
73265;BMP280;61493;51.008;14.088;2022-11-02T01:00:12;98248.31;;;7.57
73265;BMP280;61493;51.008;14.088;2022-11-02T01:02:39;98255.88;;;7.54
73265;BMP280;61493;51.008;14.088;2022-11-02T01:05:05;98255.84;;;7.58
73265;BMP280;61493;51.008;14.088;2022-11-02T01:07:31;98255.88;;;7.51
73265;BMP280;61493;51.008;14.088;2022-11-02T01:09:56;98253.97;;;7.55
73265;BMP280;61493;51.008;14.088;2022-11-02T01:12:21;98249.84;;;7.47
73265;BMP280;61493;51.008;14.088;2022-11-02T01:14:48;98247.59;;;7.42
73265;BMP280;61493;51.008;14.088;2022-11-02T01:17:13;98244.94;;;7.42
73265;BMP280;61493;51.008;14.088;2022-11-02T01:19:39;98247.22;;;7.36
73265;BMP280;61493;51.008;14.088;2022-11-02T01:22:04;98252.56;;;7.29
73265;BMP280;61493;51.008;14.088;2022-11-02T01:24:33;98248.41;;;7.21
73265;BMP280;61493;51.008;14.088;2022-11-02T01:26:59;98245.03;;;7.10
73265;BMP280;61493;51.008;14.088;2022-11-02T01:29:24;98242.78;;;7.08
73265;BMP280;61493;51.008;14.088;2022-11-02T01:31:49;98243.16;;;7.07
73265;BMP280;61493;51.008;14.088;2022-11-02T01:34:18;98253.00;;;7.06
73265;BMP280;61493;51.008;14.088;2022-11-02T01:36:44;98249.59;;;6.95
73265;BMP280;61493;51.008;14.088;2022-11-02T01:39:10;98246.22;;;6.84
73265;BMP280;61493;51.008;14.088;2022-11-02T01:41:36;98247.72;;;6.81
73265;BMP280;61493;51.008;14.088;2022-11-02T01:44:03;98243.94;;;6.89
73265;BMP280;61493;51.008;14.088;2022-11-02T01:46:35;98243.94;;;6.86
73265;BMP280;61493;51.008;14.088;2022-11-02T01:49:09;98243.94;;;6.97
73265;BMP280;61493;51.008;14.088;2022-11-02T01:51:35;98239.03;;;6.95
73265;BMP280;61493;51.008;14.088;2022-11-02T01:54:11;98235.63;;;6.91
73265;BMP280;61493;51.008;14.088;2022-11-02T01:56:39;98239.00;;;6.91
73265;BMP280;61493;51.008;14.088;2022-11-02T01:59:09;98234.84;;;6.98
73265;BMP280;61493;51.008;14.088;2022-11-02T02:01:37;98236.00;;;6.89
73265;BMP280;61493;51.008;14.088;2022-11-02T02:04:03;98243.97;;;6.82
73265;BMP280;61493;51.008;14.088;2022-11-02T02:06:29;98241.69;;;6.84
73265;BMP280;61493;51.008;14.088;2022-11-02T02:08:58;98246.97;;;6.81
73265;BMP280;61493;51.008;14.088;2022-11-02T02:11:35;98238.28;;;6.73
73265;BMP280;61493;51.008;14.088;2022-11-02T02:14:13;98241.69;;;6.70
73265;BMP280;61493;51.008;14.088;2022-11-02T02:22:22;98246.59;;;6.50
73265;BMP280;61493;51.008;14.088;2022-11-02T02:30:49;98242.81;;;6.76
73265;BMP280;61493;51.008;14.088;2022-11-02T02:36:07;98229.97;;;6.78
73265;BMP280;61493;51.008;14.088;2022-11-02T02:38:56;98236.78;;;6.69
73265;BMP280;61493;51.008;14.088;2022-11-02T02:41:38;98234.91;;;6.48
73265;BMP280;61493;51.008;14.088;2022-11-02T02:44:16;98233.75;;;6.66
73265;BMP280;61493;51.008;14.088;2022-11-02T02:46:50;98251.88;;;6.57
73265;BMP280;61493;51.008;14.088;2022-11-02T02:49:21;98242.81;;;6.33
73265;BMP280;61493;51.008;14.088;2022-11-02T02:51:52;98237.84;;;6.07
73265;BMP280;61493;51.008;14.088;2022-11-02T02:54:22;98238.66;;;6.18
73265;BMP280;61493;51.008;14.088;2022-11-02T02:56:53;98244.31;;;6.20
73265;BMP280;61493;51.008;14.088;2022-11-02T02:59:29;98239.78;;;6.28
73265;BMP280;61493;51.008;14.088;2022-11-02T03:01:56;98238.97;;;6.06
73265;BMP280;61493;51.008;14.088;2022-11-02T03:04:23;98240.88;;;6.05
73265;BMP280;61493;51.008;14.088;2022-11-02T03:06:51;98241.28;;;6.15
73265;BMP280;61493;51.008;14.088;2022-11-02T03:09:32;98239.03;;;6.27
73265;BMP280;61493;51.008;14.088;2022-11-02T03:12:22;98245.84;;;6.32
73265;BMP280;61493;51.008;14.088;2022-11-02T03:20:08;98257.88;;;6.04
73265;BMP280;61493;51.008;14.088;2022-11-02T03:22:51;98250.63;;;5.84
73265;BMP280;61493;51.008;14.088;2022-11-02T03:25:23;98254.06;;;5.98
73265;BMP280;61493;51.008;14.088;2022-11-02T03:30:25;98253.75;;;6.14
73265;BMP280;61493;51.008;14.088;2022-11-02T03:32:59;98254.44;;;5.90
73265;BMP280;61493;51.008;14.088;2022-11-02T03:35:51;98244.25;;;5.92
73265;BMP280;61493;51.008;14.088;2022-11-02T03:38:23;98248.00;;;5.94
73265;BMP280;61493;51.008;14.088;2022-11-02T03:40:51;98249.53;;;5.85
73265;BMP280;61493;51.008;14.088;2022-11-02T03:43:19;98250.28;;;5.85
73265;BMP280;61493;51.008;14.088;2022-11-02T03:45:48;98245.38;;;5.87
73265;BMP280;61493;51.008;14.088;2022-11-02T03:48:16;98252.88;;;5.82
73265;BMP280;61493;51.008;14.088;2022-11-02T03:50:47;98252.50;;;5.79
73265;BMP280;61493;51.008;14.088;2022-11-02T03:53:31;98253.16;;;5.51
73265;BMP280;61493;51.008;14.088;2022-11-02T03:56:06;98259.94;;;5.53
73265;BMP280;61493;51.008;14.088;2022-11-02T03:58:32;98261.53;;;5.68
73265;BMP280;61493;51.008;14.088;2022-11-02T04:01:01;98259.22;;;5.63
73265;BMP280;61493;51.008;14.088;2022-11-02T04:03:29;98255.47;;;5.67
73265;BMP280;61493;51.008;14.088;2022-11-02T04:05:56;98262.66;;;5.70
73265;BMP280;61493;51.008;14.088;2022-11-02T04:08:33;98265.38;;;5.88
73265;BMP280;61493;51.008;14.088;2022-11-02T04:11:00;98264.59;;;5.80
73265;BMP280;61493;51.008;14.088;2022-11-02T04:13:44;98267.53;;;5.58
73265;BMP280;61493;51.008;14.088;2022-11-02T04:16:28;98270.16;;;5.58
73265;BMP280;61493;51.008;14.088;2022-11-02T04:18:54;98274.31;;;5.66
73265;BMP280;61493;51.008;14.088;2022-11-02T04:21:38;98276.19;;;5.58
73265;BMP280;61493;51.008;14.088;2022-11-02T04:24:04;98273.47;;;5.47
73265;BMP280;61493;51.008;14.088;2022-11-02T04:26:48;98263.31;;;5.49
73265;BMP280;61493;51.008;14.088;2022-11-02T04:29:13;98269.00;;;5.55
73265;BMP280;61493;51.008;14.088;2022-11-02T04:31:41;98264.44;;;5.45
73265;BMP280;61493;51.008;14.088;2022-11-02T04:34:08;98267.03;;;5.38
73265;BMP280;61493;51.008;14.088;2022-11-02T04:36:34;98258.03;;;5.49
73265;BMP280;61493;51.008;14.088;2022-11-02T04:38:59;98258.88;;;5.71
73265;BMP280;61493;51.008;14.088;2022-11-02T04:41:26;98252.53;;;5.87
73265;BMP280;61493;51.008;14.088;2022-11-02T04:44:33;98254.00;;;5.73
73265;BMP280;61493;51.008;14.088;2022-11-02T04:47:29;98253.19;;;5.62
73265;BMP280;61493;51.008;14.088;2022-11-02T04:50:31;98245.63;;;5.61
73265;BMP280;61493;51.008;14.088;2022-11-02T04:53:10;98250.56;;;5.66
73265;BMP280;61493;51.008;14.088;2022-11-02T04:55:51;98241.13;;;5.58
73265;BMP280;61493;51.008;14.088;2022-11-02T04:58:27;98255.06;;;5.58
73265;BMP280;61493;51.008;14.088;2022-11-02T05:00:53;98249.38;;;5.53
73265;BMP280;61493;51.008;14.088;2022-11-02T05:03:19;98250.84;;;5.46
73265;BMP280;61493;51.008;14.088;2022-11-02T05:05:44;98255.84;;;5.66
73265;BMP280;61493;51.008;14.088;2022-11-02T05:08:10;98240.75;;;5.66
73265;BMP280;61493;51.008;14.088;2022-11-02T05:10:35;98253.22;;;5.69
73265;BMP280;61493;51.008;14.088;2022-11-02T05:13:00;98256.53;;;5.52
73265;BMP280;61493;51.008;14.088;2022-11-02T05:15:26;98255.41;;;5.53
73265;BMP280;61493;51.008;14.088;2022-11-02T05:17:51;98261.50;;;5.64
73265;BMP280;61493;51.008;14.088;2022-11-02T05:20:17;98261.50;;;5.57
73265;BMP280;61493;51.008;14.088;2022-11-02T05:22:42;98266.34;;;5.55
73265;BMP280;61493;51.008;14.088;2022-11-02T05:25:11;98262.28;;;5.68
73265;BMP280;61493;51.008;14.088;2022-11-02T05:27:37;98265.31;;;5.70
73265;BMP280;61493;51.008;14.088;2022-11-02T05:30:04;98264.50;;;5.66
73265;BMP280;61493;51.008;14.088;2022-11-02T05:32:29;98261.88;;;5.66
73265;BMP280;61493;51.008;14.088;2022-11-02T05:34:54;98258.13;;;5.71
73265;BMP280;61493;51.008;14.088;2022-11-02T05:37:20;98262.63;;;5.56
73265;BMP280;61493;51.008;14.088;2022-11-02T05:39:45;98266.75;;;5.61
73265;BMP280;61493;51.008;14.088;2022-11-02T05:42:10;98276.56;;;5.64
73265;BMP280;61493;51.008;14.088;2022-11-02T05:44:36;98277.34;;;5.64
73265;BMP280;61493;51.008;14.088;2022-11-02T05:47:02;98276.22;;;5.65
73265;BMP280;61493;51.008;14.088;2022-11-02T05:49:28;98277.31;;;5.57
73265;BMP280;61493;51.008;14.088;2022-11-02T05:51:53;98293.91;;;5.58
73265;BMP280;61493;51.008;14.088;2022-11-02T05:54:19;98287.50;;;5.62
73265;BMP280;61493;51.008;14.088;2022-11-02T05:56:44;98281.16;;;5.70
73265;BMP280;61493;51.008;14.088;2022-11-02T05:59:10;98276.97;;;5.66
73265;BMP280;61493;51.008;14.088;2022-11-02T06:01:35;98285.63;;;5.66
73265;BMP280;61493;51.008;14.088;2022-11-02T06:04:01;98277.31;;;5.61
73265;BMP280;61493;51.008;14.088;2022-11-02T06:06:26;98281.09;;;5.60
73265;BMP280;61493;51.008;14.088;2022-11-02T06:08:51;98278.88;;;5.69
73265;BMP280;61493;51.008;14.088;2022-11-02T06:11:17;98283.81;;;5.74
73265;BMP280;61493;51.008;14.088;2022-11-02T06:13:42;98283.78;;;5.70
73265;BMP280;61493;51.008;14.088;2022-11-02T06:16:10;98280.03;;;5.75
73265;BMP280;61493;51.008;14.088;2022-11-02T06:18:37;98286.38;;;5.67
73265;BMP280;61493;51.008;14.088;2022-11-02T06:21:02;98295.09;;;5.71
73265;BMP280;61493;51.008;14.088;2022-11-02T06:23:28;98292.84;;;5.76
73265;BMP280;61493;51.008;14.088;2022-11-02T06:25:56;98306.78;;;5.70
73265;BMP280;61493;51.008;14.088;2022-11-02T06:28:25;98295.19;;;5.92
73265;BMP280;61493;51.008;14.088;2022-11-02T06:30:51;98300.47;;;5.89
73265;BMP280;61493;51.008;14.088;2022-11-02T06:33:18;98308.44;;;6.03
73265;BMP280;61493;51.008;14.088;2022-11-02T06:35:45;98305.06;;;6.09
73265;BMP280;61493;51.008;14.088;2022-11-02T06:38:11;98313.75;;;6.24
73265;BMP280;61493;51.008;14.088;2022-11-02T06:40:40;98309.28;;;6.39
73265;BMP280;61493;51.008;14.088;2022-11-02T06:43:05;98310.81;;;6.44
73265;BMP280;61493;51.008;14.088;2022-11-02T06:45:31;98322.91;;;6.59
73265;BMP280;61493;51.008;14.088;2022-11-02T06:47:56;98312.31;;;6.62
73265;BMP280;61493;51.008;14.088;2022-11-02T06:50:21;98321.38;;;7.15
73265;BMP280;61493;51.008;14.088;2022-11-02T06:52:48;98332.13;;;7.95
73265;BMP280;61493;51.008;14.088;2022-11-02T06:55:14;98323.56;;;9.25
73265;BMP280;61493;51.008;14.088;2022-11-02T06:57:41;98320.16;;;9.25
73265;BMP280;61493;51.008;14.088;2022-11-02T07:00:09;98316.63;;;9.39
73265;BMP280;61493;51.008;14.088;2022-11-02T07:02:37;98309.81;;;9.00
73265;BMP280;61493;51.008;14.088;2022-11-02T07:05:02;98316.91;;;9.14
73265;BMP280;61493;51.008;14.088;2022-11-02T07:07:27;98327.53;;;9.10
73265;BMP280;61493;51.008;14.088;2022-11-02T07:09:53;98319.59;;;9.07
73265;BMP280;61493;51.008;14.088;2022-11-02T07:12:18;98317.03;;;8.96
73265;BMP280;61493;51.008;14.088;2022-11-02T07:14:43;98310.53;;;9.04
73265;BMP280;61493;51.008;14.088;2022-11-02T07:17:09;98301.28;;;9.19
73265;BMP280;61493;51.008;14.088;2022-11-02T07:19:34;98285.31;;;9.53
73265;BMP280;61493;51.008;14.088;2022-11-02T07:22:04;98257.47;;;9.69
73265;BMP280;61493;51.008;14.088;2022-11-02T07:24:29;98240.81;;;9.61
73265;BMP280;61493;51.008;14.088;2022-11-02T07:26:54;98204.25;;;9.96
73265;BMP280;61493;51.008;14.088;2022-11-02T07:29:20;98188.06;;;10.37
73265;BMP280;61493;51.008;14.088;2022-11-02T07:31:45;98199.63;;;10.03
73265;BMP280;61493;51.008;14.088;2022-11-02T07:34:11;98191.94;;;10.95
73265;BMP280;61493;51.008;14.088;2022-11-02T07:36:36;98254.22;;;11.90
73265;BMP280;61493;51.008;14.088;2022-11-02T07:39:02;98320.25;;;13.38
73265;BMP280;61493;51.008;14.088;2022-11-02T07:41:28;98350.97;;;14.09
73265;BMP280;61493;51.008;14.088;2022-11-02T07:43:53;98401.25;;;15.09
73265;BMP280;61493;51.008;14.088;2022-11-02T07:46:18;98418.03;;;15.44
73265;BMP280;61493;51.008;14.088;2022-11-02T07:48:45;98414.47;;;15.78
73265;BMP280;61493;51.008;14.088;2022-11-02T07:51:10;98418.19;;;17.06
73265;BMP280;61493;51.008;14.088;2022-11-02T07:53:36;98423.47;;;17.85
73265;BMP280;61493;51.008;14.088;2022-11-02T07:56:03;98422.09;;;18.46
73265;BMP280;61493;51.008;14.088;2022-11-02T07:58:28;98427.47;;;19.93
73265;BMP280;61493;51.008;14.088;2022-11-02T08:00:56;98415.50;;;20.15
73265;BMP280;61493;51.008;14.088;2022-11-02T08:03:22;98414.16;;;21.65
73265;BMP280;61493;51.008;14.088;2022-11-02T08:05:47;98415.31;;;21.48
73265;BMP280;61493;51.008;14.088;2022-11-02T08:08:16;98415.66;;;21.29
73265;BMP280;61493;51.008;14.088;2022-11-02T08:10:42;98402.38;;;21.68
73265;BMP280;61493;51.008;14.088;2022-11-02T08:13:11;98409.78;;;23.44
73265;BMP280;61493;51.008;14.088;2022-11-02T08:15:37;98412.81;;;23.18
73265;BMP280;61493;51.008;14.088;2022-11-02T08:18:04;98410.63;;;23.06
73265;BMP280;61493;51.008;14.088;2022-11-02T08:20:30;98411.59;;;24.05
73265;BMP280;61493;51.008;14.088;2022-11-02T08:22:56;98407.66;;;25.07
73265;BMP280;61493;51.008;14.088;2022-11-02T08:25:22;98413.63;;;24.76
73265;BMP280;61493;51.008;14.088;2022-11-02T08:27:47;98407.69;;;25.74
73265;BMP280;61493;51.008;14.088;2022-11-02T08:30:12;98406.94;;;23.95
73265;BMP280;61493;51.008;14.088;2022-11-02T08:35:06;98414.34;;;25.55
73265;BMP280;61493;51.008;14.088;2022-11-02T08:37:31;98426.31;;;25.46
73265;BMP280;61493;51.008;14.088;2022-11-02T08:39:56;98417.19;;;25.19
73265;BMP280;61493;51.008;14.088;2022-11-02T08:42:21;98416.00;;;25.39
73265;BMP280;61493;51.008;14.088;2022-11-02T08:44:47;98423.53;;;25.76
73265;BMP280;61493;51.008;14.088;2022-11-02T08:47:12;98424.69;;;26.18
73265;BMP280;61493;51.008;14.088;2022-11-02T08:49:39;98426.25;;;26.32
73265;BMP280;61493;51.008;14.088;2022-11-02T08:52:04;98424.88;;;27.16
73265;BMP280;61493;51.008;14.088;2022-11-02T08:54:29;98427.31;;;24.94
73265;BMP280;61493;51.008;14.088;2022-11-02T08:56:55;98422.72;;;26.18
73265;BMP280;61493;51.008;14.088;2022-11-02T08:59:23;98421.31;;;26.63
73265;BMP280;61493;51.008;14.088;2022-11-02T09:01:48;98424.53;;;26.93
73265;BMP280;61493;51.008;14.088;2022-11-02T09:04:13;98430.63;;;26.99
73265;BMP280;61493;51.008;14.088;2022-11-02T09:06:39;98421.88;;;26.42
73265;BMP280;61493;51.008;14.088;2022-11-02T09:09:04;98424.25;;;27.10
73265;BMP280;61493;51.008;14.088;2022-11-02T09:11:31;98434.72;;;28.05
73265;BMP280;61493;51.008;14.088;2022-11-02T09:13:57;98440.06;;;26.53
73265;BMP280;61493;51.008;14.088;2022-11-02T09:16:22;98441.94;;;26.77
73265;BMP280;61493;51.008;14.088;2022-11-02T09:18:47;98442.06;;;25.34
73265;BMP280;61493;51.008;14.088;2022-11-02T09:21:13;98453.25;;;25.50
73265;BMP280;61493;51.008;14.088;2022-11-02T09:23:38;98449.06;;;26.29
73265;BMP280;61493;51.008;14.088;2022-11-02T09:26:03;98457.47;;;28.00
73265;BMP280;61493;51.008;14.088;2022-11-02T09:28:29;98446.19;;;26.40
73265;BMP280;61493;51.008;14.088;2022-11-02T09:30:55;98441.63;;;26.48
73265;BMP280;61493;51.008;14.088;2022-11-02T09:33:20;98440.47;;;25.69
73265;BMP280;61493;51.008;14.088;2022-11-02T09:35:47;98441.88;;;23.68
73265;BMP280;61493;51.008;14.088;2022-11-02T09:38:13;98449.00;;;22.37
73265;BMP280;61493;51.008;14.088;2022-11-02T09:40:53;98439.72;;;21.59
73265;BMP280;61493;51.008;14.088;2022-11-02T09:46:24;98441.69;;;22.88
73265;BMP280;61493;51.008;14.088;2022-11-02T09:48:53;98433.78;;;20.92
73265;BMP280;61493;51.008;14.088;2022-11-02T09:51:22;98441.72;;;20.75
73265;BMP280;61493;51.008;14.088;2022-11-02T09:54:15;98436.38;;;20.35
73265;BMP280;61493;51.008;14.088;2022-11-02T09:56:43;98442.06;;;19.81
73265;BMP280;61493;51.008;14.088;2022-11-02T10:04:52;98442.81;;;18.07
73265;BMP280;61493;51.008;14.088;2022-11-02T10:10:32;98445.03;;;16.61
73265;BMP280;61493;51.008;14.088;2022-11-02T10:15:59;98440.13;;;16.10
73265;BMP280;61493;51.008;14.088;2022-11-02T10:18:27;98442.34;;;15.49
73265;BMP280;61493;51.008;14.088;2022-11-02T10:21:01;98442.72;;;15.17
73265;BMP280;61493;51.008;14.088;2022-11-02T10:23:44;98444.84;;;14.87
73265;BMP280;61493;51.008;14.088;2022-11-02T10:26:17;98449.75;;;14.54
73265;BMP280;61493;51.008;14.088;2022-11-02T10:28:47;98449.63;;;14.45
73265;BMP280;61493;51.008;14.088;2022-11-02T10:31:31;98443.44;;;14.48
73265;BMP280;61493;51.008;14.088;2022-11-02T10:34:04;98443.69;;;14.76
73265;BMP280;61493;51.008;14.088;2022-11-02T10:37:22;98444.31;;;14.80
73265;BMP280;61493;51.008;14.088;2022-11-02T10:50:47;98456.28;;;14.66
73265;BMP280;61493;51.008;14.088;2022-11-02T10:53:18;98449.31;;;14.56
73265;BMP280;61493;51.008;14.088;2022-11-02T10:56:15;98450.19;;;14.87
73265;BMP280;61493;51.008;14.088;2022-11-02T11:01:13;98455.78;;;16.11
73265;BMP280;61493;51.008;14.088;2022-11-02T11:03:58;98452.97;;;18.36
73265;BMP280;61493;51.008;14.088;2022-11-02T11:06:29;98453.38;;;20.41
73265;BMP280;61493;51.008;14.088;2022-11-02T11:09:22;98449.03;;;21.95
73265;BMP280;61493;51.008;14.088;2022-11-02T11:12:02;98446.19;;;22.15
73265;BMP280;61493;51.008;14.088;2022-11-02T11:14:29;98446.72;;;24.44
73265;BMP280;61493;51.008;14.088;2022-11-02T11:16:59;98451.28;;;22.72
73265;BMP280;61493;51.008;14.088;2022-11-02T11:19:39;98444.81;;;24.28
73265;BMP280;61493;51.008;14.088;2022-11-02T11:22:29;98448.66;;;24.90
73265;BMP280;61493;51.008;14.088;2022-11-02T11:27:45;98451.22;;;23.67
73265;BMP280;61493;51.008;14.088;2022-11-02T11:30:31;98454.19;;;23.80
73265;BMP280;61493;51.008;14.088;2022-11-02T11:32:58;98452.69;;;23.85
73265;BMP280;61493;51.008;14.088;2022-11-02T11:35:28;98445.13;;;22.83
73265;BMP280;61493;51.008;14.088;2022-11-02T11:37:57;98449.03;;;20.69
73265;BMP280;61493;51.008;14.088;2022-11-02T11:40:24;98442.97;;;20.34
73265;BMP280;61493;51.008;14.088;2022-11-02T11:42:52;98448.81;;;19.12
73265;BMP280;61493;51.008;14.088;2022-11-02T11:45:24;98448.22;;;17.74
73265;BMP280;61493;51.008;14.088;2022-11-02T11:51:23;98443.91;;;18.01
73265;BMP280;61493;51.008;14.088;2022-11-02T11:54:25;98446.53;;;17.26
73265;BMP280;61493;51.008;14.088;2022-11-02T11:56:53;98443.25;;;17.73
73265;BMP280;61493;51.008;14.088;2022-11-02T12:01:47;98439.53;;;18.75
73265;BMP280;61493;51.008;14.088;2022-11-02T12:04:25;98431.31;;;18.54
73265;BMP280;61493;51.008;14.088;2022-11-02T12:09:43;98441.47;;;16.82
73265;BMP280;61493;51.008;14.088;2022-11-02T12:23:03;98426.47;;;14.64
73265;BMP280;61493;51.008;14.088;2022-11-02T12:30:54;98440.84;;;14.57
73265;BMP280;61493;51.008;14.088;2022-11-02T12:33:32;98446.38;;;14.76
73265;BMP280;61493;51.008;14.088;2022-11-02T12:44:47;98442.81;;;14.19
73265;BMP280;61493;51.008;14.088;2022-11-02T12:47:36;98432.00;;;14.22
73265;BMP280;61493;51.008;14.088;2022-11-02T12:50:23;98436.81;;;14.15
73265;BMP280;61493;51.008;14.088;2022-11-02T12:55:42;98443.09;;;14.46
73265;BMP280;61493;51.008;14.088;2022-11-02T12:58:19;98440.19;;;14.53
73265;BMP280;61493;51.008;14.088;2022-11-02T13:00:47;98447.59;;;14.62
73265;BMP280;61493;51.008;14.088;2022-11-02T13:05:51;98441.34;;;15.87
73265;BMP280;61493;51.008;14.088;2022-11-02T13:08:38;98452.25;;;16.23
73265;BMP280;61493;51.008;14.088;2022-11-02T13:11:11;98443.81;;;16.43
73265;BMP280;61493;51.008;14.088;2022-11-02T13:13:45;98433.84;;;16.80
73265;BMP280;61493;51.008;14.088;2022-11-02T13:16:13;98446.34;;;17.38
73265;BMP280;61493;51.008;14.088;2022-11-02T13:18:48;98438.91;;;16.60
73265;BMP280;61493;51.008;14.088;2022-11-02T13:21:17;98443.94;;;16.40
73265;BMP280;61493;51.008;14.088;2022-11-02T13:23:45;98440.28;;;16.92
73265;BMP280;61493;51.008;14.088;2022-11-02T13:26:37;98444.28;;;16.78
73265;BMP280;61493;51.008;14.088;2022-11-02T13:29:12;98447.28;;;16.89
73265;BMP280;61493;51.008;14.088;2022-11-02T13:31:43;98443.34;;;16.54
73265;BMP280;61493;51.008;14.088;2022-11-02T13:34:17;98442.78;;;16.59
73265;BMP280;61493;51.008;14.088;2022-11-02T13:36:44;98439.63;;;16.51
73265;BMP280;61493;51.008;14.088;2022-11-02T13:39:19;98438.06;;;16.23
73265;BMP280;61493;51.008;14.088;2022-11-02T13:41:49;98432.66;;;15.74
73265;BMP280;61493;51.008;14.088;2022-11-02T13:49:53;98438.53;;;14.81
73265;BMP280;61493;51.008;14.088;2022-11-02T13:52:27;98441.00;;;14.88
73265;BMP280;61493;51.008;14.088;2022-11-02T14:00:29;98457.03;;;14.54
73265;BMP280;61493;51.008;14.088;2022-11-02T14:05:29;98453.88;;;13.79
73265;BMP280;61493;51.008;14.088;2022-11-02T14:08:00;98454.28;;;13.36
73265;BMP280;61493;51.008;14.088;2022-11-02T14:10:27;98451.59;;;13.07
73265;BMP280;61493;51.008;14.088;2022-11-02T14:12:54;98455.19;;;13.00
73265;BMP280;61493;51.008;14.088;2022-11-02T14:25:56;98467.25;;;13.05
73265;BMP280;61493;51.008;14.088;2022-11-02T14:28:53;98470.72;;;13.06
73265;BMP280;61493;51.008;14.088;2022-11-02T14:31:32;98458.00;;;13.10
73265;BMP280;61493;51.008;14.088;2022-11-02T14:34:35;98458.44;;;13.08
73265;BMP280;61493;51.008;14.088;2022-11-02T14:37:23;98465.50;;;12.98
73265;BMP280;61493;51.008;14.088;2022-11-02T14:48:30;98442.34;;;12.63
73265;BMP280;61493;51.008;14.088;2022-11-02T14:51:02;98438.56;;;12.44
73265;BMP280;61493;51.008;14.088;2022-11-02T14:53:31;98445.56;;;12.22
73265;BMP280;61493;51.008;14.088;2022-11-02T14:55:57;98445.50;;;12.05
73265;BMP280;61493;51.008;14.088;2022-11-02T14:58:38;98450.88;;;11.86
73265;BMP280;61493;51.008;14.088;2022-11-02T15:01:05;98446.00;;;11.81
73265;BMP280;61493;51.008;14.088;2022-11-02T15:03:37;98439.44;;;11.65
73265;BMP280;61493;51.008;14.088;2022-11-02T15:06:18;98445.84;;;11.48
73265;BMP280;61493;51.008;14.088;2022-11-02T15:09:03;98457.22;;;11.29
73265;BMP280;61493;51.008;14.088;2022-11-02T15:14:30;98450.66;;;11.33
73265;BMP280;61493;51.008;14.088;2022-11-02T15:16:59;98456.28;;;11.16
73265;BMP280;61493;51.008;14.088;2022-11-02T15:25:04;98459.41;;;10.87
73265;BMP280;61493;51.008;14.088;2022-11-02T15:27:30;98455.94;;;10.63
73265;BMP280;61493;51.008;14.088;2022-11-02T15:29:57;98450.66;;;10.33
73265;BMP280;61493;51.008;14.088;2022-11-02T15:32:25;98459.22;;;10.17
73265;BMP280;61493;51.008;14.088;2022-11-02T15:35:01;98457.09;;;10.05
73265;BMP280;61493;51.008;14.088;2022-11-02T15:37:29;98453.53;;;9.84
73265;BMP280;61493;51.008;14.088;2022-11-02T15:40:00;98457.06;;;9.71
73265;BMP280;61493;51.008;14.088;2022-11-02T15:45:19;98457.22;;;9.56
73265;BMP280;61493;51.008;14.088;2022-11-02T15:53:57;98464.06;;;9.09
73265;BMP280;61493;51.008;14.088;2022-11-02T15:57:05;98475.97;;;8.87
73265;BMP280;61493;51.008;14.088;2022-11-02T16:02:21;98476.16;;;8.51
73265;BMP280;61493;51.008;14.088;2022-11-02T16:04:55;98471.91;;;8.68
73265;BMP280;61493;51.008;14.088;2022-11-02T16:07:22;98463.63;;;8.62
73265;BMP280;61493;51.008;14.088;2022-11-02T16:09:48;98464.81;;;8.51
73265;BMP280;61493;51.008;14.088;2022-11-02T16:12:18;98481.50;;;8.40
73265;BMP280;61493;51.008;14.088;2022-11-02T16:14:57;98477.41;;;8.29
73265;BMP280;61493;51.008;14.088;2022-11-02T16:17:25;98472.84;;;8.29
73265;BMP280;61493;51.008;14.088;2022-11-02T16:20:07;98482.72;;;8.25
73265;BMP280;61493;51.008;14.088;2022-11-02T16:22:33;98485.72;;;8.24
73265;BMP280;61493;51.008;14.088;2022-11-02T16:24:58;98484.84;;;8.55
73265;BMP280;61493;51.008;14.088;2022-11-02T16:27:24;98487.44;;;8.69
73265;BMP280;61493;51.008;14.088;2022-11-02T16:29:50;98492.31;;;8.82
73265;BMP280;61493;51.008;14.088;2022-11-02T16:32:16;98498.84;;;8.63
73265;BMP280;61493;51.008;14.088;2022-11-02T16:34:43;98495.88;;;8.54
73265;BMP280;61493;51.008;14.088;2022-11-02T16:37:11;98504.50;;;8.68
73265;BMP280;61493;51.008;14.088;2022-11-02T16:39:44;98506.50;;;8.54
73265;BMP280;61493;51.008;14.088;2022-11-02T16:42:21;98511.78;;;8.50
73265;BMP280;61493;51.008;14.088;2022-11-02T16:44:57;98504.22;;;8.52
73265;BMP280;61493;51.008;14.088;2022-11-02T16:47:38;98509.19;;;8.43
73265;BMP280;61493;51.008;14.088;2022-11-02T16:50:18;98514.84;;;8.41